createdAt,value
2023-04-29T00:02:55.211Z,100298.34
2023-04-29T00:06:09.825Z,100295.13
2023-04-29T00:09:11.813Z,100291.37
2023-04-29T00:12:26.705Z,100286.00
2023-04-29T00:15:28.591Z,100273.25
2023-04-29T00:18:43.718Z,100280.03
2023-04-29T00:21:58.676Z,100280.84
2023-04-29T00:25:00.486Z,100276.56
2023-04-29T00:28:15.704Z,100276.25
2023-04-29T00:31:30.763Z,100276.25
2023-04-29T00:34:39.812Z,100277.28
2023-04-29T00:37:48.352Z,100270.50
2023-04-29T00:40:57.717Z,100276.41
2023-04-29T00:44:06.335Z,100278.19
2023-04-29T00:47:20.667Z,100276.28
2023-04-29T00:50:36.852Z,100276.28
2023-04-29T00:53:46.990Z,100282.44
2023-04-29T00:56:57.714Z,100277.87
2023-04-29T01:00:07.077Z,100282.44
2023-04-29T01:03:15.853Z,100277.87
2023-04-29T01:06:41.681Z,100285.94
2023-04-29T01:09:46.680Z,100277.56
2023-04-29T01:13:13.693Z,100276.19
2023-04-29T01:16:32.103Z,100277.31
2023-04-29T01:19:58.682Z,100277.81
2023-04-29T01:23:07.731Z,100285.06
2023-04-29T01:26:22.686Z,100286.12
2023-04-29T01:29:49.794Z,100279.19
2023-04-29T01:33:36.688Z,100278.06
2023-04-29T01:36:53.687Z,100275.38
2023-04-29T01:40:04.980Z,100285.63
2023-04-29T01:43:21.720Z,100276.28
2023-04-29T01:46:31.390Z,100270.72
2023-04-29T01:49:54.010Z,100267.13
2023-04-29T01:52:56.115Z,100270.69
2023-04-29T01:56:10.728Z,100265.09
2023-04-29T01:59:25.681Z,100263.28
2023-04-29T02:02:27.709Z,100265.69
2023-04-29T02:05:42.705Z,100269.97
2023-04-29T02:08:57.697Z,100272.66
2023-04-29T02:12:12.727Z,100278.25
2023-04-29T02:15:21.773Z,100264.31
2023-04-29T02:18:30.337Z,100262.91
2023-04-29T02:21:44.698Z,100260.22
2023-04-29T02:24:53.356Z,100267.28
2023-04-29T02:28:07.724Z,100261.91
2023-04-29T02:31:22.789Z,100269.47
2023-04-29T02:34:31.297Z,100275.34
2023-04-29T02:37:39.725Z,100274.84
2023-04-29T02:40:54.731Z,100268.97
2023-04-29T02:44:03.699Z,100272.72
2023-04-29T02:47:12.240Z,100260.72
2023-04-29T02:50:27.785Z,100258.59
2023-04-29T02:53:36.390Z,100255.13
2023-04-29T02:56:50.714Z,100250.56
2023-04-29T02:59:52.830Z,100250.31
2023-04-29T03:03:07.838Z,100235.41
2023-04-29T03:06:10.106Z,100244.37
2023-04-29T03:09:24.698Z,100240.19
2023-04-29T03:12:26.609Z,100246.72
2023-04-29T03:15:41.714Z,100249.31
2023-04-29T03:18:56.964Z,100248.75
2023-04-29T03:21:58.973Z,100242.28
2023-04-29T03:25:14.702Z,100239.97
2023-04-29T03:28:29.709Z,100244.19
2023-04-29T03:31:31.664Z,100243.87
2023-04-29T03:34:46.700Z,100241.50
2023-04-29T03:38:01.699Z,100244.06
2023-04-29T03:41:16.727Z,100252.50
2023-04-29T03:44:18.779Z,100263.47
2023-04-29T03:47:33.758Z,100249.81
2023-04-29T03:50:48.701Z,100252.75
2023-04-29T03:53:57.528Z,100259.91
2023-04-29T03:57:05.692Z,100262.28
2023-04-29T04:00:14.499Z,100262.88
2023-04-29T04:03:29.882Z,100270.16
2023-04-29T04:06:31.732Z,100277.59
2023-04-29T04:09:46.705Z,100270.16
2023-04-29T04:12:55.248Z,100274.72
2023-04-29T04:16:03.802Z,100278.47
2023-04-29T04:19:12.353Z,100288.94
2023-04-29T04:22:20.679Z,100292.41
2023-04-29T04:25:35.729Z,100297.75
2023-04-29T04:28:37.626Z,100290.50
2023-04-29T04:31:53.752Z,100280.53
2023-04-29T04:35:02.751Z,100294.47
2023-04-29T04:38:11.311Z,100293.44
2023-04-29T04:41:19.706Z,100302.16
2023-04-29T04:44:28.498Z,100294.47
2023-04-29T04:47:36.744Z,100294.50
2023-04-29T04:50:58.754Z,100287.31
2023-04-29T04:54:06.707Z,100290.31
2023-04-29T04:57:21.740Z,100291.63
2023-04-29T05:00:23.624Z,100286.75
2023-04-29T05:03:38.947Z,100281.97
2023-04-29T05:06:47.704Z,100286.75
2023-04-29T05:10:02.747Z,100279.56
2023-04-29T05:13:04.741Z,100275.69
2023-04-29T05:16:19.746Z,100268.06
2023-04-29T05:19:21.672Z,100258.63
2023-04-29T05:22:36.735Z,100283.06
2023-04-29T05:25:38.643Z,100276.81
2023-04-29T05:28:53.725Z,100266.34
2023-04-29T05:31:55.639Z,100277.44
2023-04-29T05:35:11.699Z,100274.63
2023-04-29T05:38:26.729Z,100290.06
2023-04-29T05:41:34.717Z,100285.00
2023-04-29T05:44:43.250Z,100284.69
2023-04-29T05:47:51.792Z,100279.12
2023-04-29T05:51:13.728Z,100290.38
2023-04-29T05:54:21.701Z,100301.09
2023-04-29T05:57:30.386Z,100276.91
2023-04-29T06:00:44.737Z,100300.69
2023-04-29T06:03:52.904Z,100287.56
2023-04-29T06:07:01.337Z,100299.16
2023-04-29T06:10:15.727Z,100302.34
2023-04-29T06:13:30.744Z,100297.50
2023-04-29T06:16:33.449Z,100301.09
2023-04-29T06:19:48.715Z,100295.13
2023-04-29T06:22:50.575Z,100303.03
2023-04-29T06:26:05.729Z,100305.22
2023-04-29T06:29:14.741Z,100311.00
2023-04-29T06:32:23.435Z,100308.91
2023-04-29T06:35:38.724Z,100317.63
2023-04-29T06:38:53.708Z,100306.66
2023-04-29T06:42:08.738Z,100321.81
2023-04-29T06:45:17.756Z,100309.88
2023-04-29T06:48:32.748Z,100307.12
2023-04-29T06:51:54.716Z,100299.00
2023-04-29T06:54:56.604Z,100287.44
2023-04-29T06:58:11.748Z,100303.56
2023-04-29T07:01:26.768Z,100298.91
2023-04-29T07:04:35.597Z,100310.47
2023-04-29T07:07:50.890Z,100312.47
2023-04-29T07:10:59.929Z,100317.84
2023-04-29T07:14:08.763Z,100317.41
2023-04-29T07:17:17.368Z,100309.97
2023-04-29T07:20:31.791Z,100307.28
2023-04-29T07:23:40.415Z,100307.16
2023-04-29T07:26:54.740Z,100314.16
2023-04-29T07:29:56.649Z,100311.16
2023-04-29T07:33:11.747Z,100310.75
2023-04-29T07:36:20.394Z,100311.47
2023-04-29T07:39:28.726Z,100313.97
2023-04-29T07:42:43.735Z,100311.37
2023-04-29T07:45:51.770Z,100319.06
2023-04-29T07:49:00.409Z,100319.38
2023-04-29T07:52:21.715Z,100293.88
2023-04-29T07:55:29.739Z,100299.66
2023-04-29T07:58:38.357Z,100309.09
2023-04-29T08:01:52.703Z,100319.47
2023-04-29T08:04:56.156Z,100326.94
2023-04-29T08:08:11.724Z,100335.09
2023-04-29T08:11:26.945Z,100326.66
2023-04-29T08:14:35.710Z,100333.44
2023-04-29T08:17:44.681Z,100320.19
2023-04-29T08:20:54.729Z,100332.44
2023-04-29T08:24:03.468Z,100313.91
2023-04-29T08:27:11.760Z,100325.44
2023-04-29T08:30:26.707Z,100330.41
2023-04-29T08:33:28.682Z,100327.97
2023-04-29T08:36:43.746Z,100326.00
2023-04-29T08:39:51.709Z,100329.59
2023-04-29T08:43:01.259Z,100328.19
2023-04-29T08:46:22.749Z,100331.59
2023-04-29T08:49:44.918Z,100323.81
2023-04-29T08:52:59.731Z,100328.25
2023-04-29T08:56:14.697Z,100327.31
2023-04-29T08:59:30.749Z,100329.41
2023-04-29T09:02:33.951Z,100316.66
2023-04-29T09:05:49.764Z,100331.94
2023-04-29T09:09:00.005Z,100327.41
2023-04-29T09:12:08.743Z,100336.50
2023-04-29T09:15:23.699Z,100338.72
2023-04-29T09:18:48.839Z,100339.66
2023-04-29T09:22:04.757Z,100338.44
2023-04-29T09:25:14.091Z,100347.00
2023-04-29T09:28:28.719Z,100344.44
2023-04-29T09:31:47.766Z,100336.28
2023-04-29T09:34:49.678Z,100344.44
2023-04-29T09:38:21.741Z,100335.34
2023-04-29T09:41:30.729Z,100338.47
2023-04-29T09:44:42.098Z,100335.91
2023-04-29T09:47:50.745Z,100341.03
2023-04-29T09:51:06.015Z,100330.69
2023-04-29T09:54:31.738Z,100332.69
2023-04-29T09:57:46.742Z,100322.34
2023-04-29T10:00:57.182Z,100318.09
2023-04-29T10:04:13.800Z,100319.03
2023-04-29T10:07:29.706Z,100320.91
2023-04-29T10:10:39.133Z,100313.25
2023-04-29T10:13:56.734Z,100304.63
2023-04-29T10:17:07.154Z,100307.09
2023-04-29T10:20:28.735Z,100306.03
2023-04-29T10:23:38.492Z,100301.78
2023-04-29T10:26:54.722Z,100305.50
2023-04-29T10:30:04.724Z,100306.59
2023-04-29T10:33:16.645Z,100291.25
2023-04-29T10:36:25.736Z,100296.97
2023-04-29T10:40:05.506Z,100302.41
2023-04-29T10:43:22.748Z,100294.53
2023-04-29T10:46:37.844Z,100283.38
2023-04-29T10:49:39.868Z,100283.00
2023-04-29T10:53:04.742Z,100275.00
2023-04-29T10:56:15.766Z,100271.59
2023-04-29T10:59:33.220Z,100266.59
2023-04-29T11:02:49.045Z,100267.84
2023-04-29T11:06:08.954Z,100258.75
2023-04-29T11:09:33.762Z,100259.66
2023-04-29T11:12:36.046Z,100253.06
2023-04-29T11:15:50.781Z,100239.88
2023-04-29T11:19:08.139Z,100229.50
2023-04-29T11:22:25.744Z,100239.16
2023-04-29T11:25:28.001Z,100232.25
2023-04-29T11:28:42.746Z,100229.88
2023-04-29T11:32:05.773Z,100235.25
2023-04-29T11:35:24.776Z,100222.78
2023-04-29T11:38:37.753Z,100221.78
2023-04-29T11:41:52.938Z,100223.28
2023-04-29T11:44:55.843Z,100226.31
2023-04-29T11:48:11.780Z,100227.56
2023-04-29T11:51:27.592Z,100220.75
2023-04-29T11:54:42.763Z,100222.75
2023-04-29T11:57:44.864Z,100227.75
2023-04-29T12:00:59.779Z,100226.81
2023-04-29T12:04:07.869Z,100229.66
2023-04-29T12:07:23.779Z,100220.31
2023-04-29T12:10:32.704Z,100228.84
2023-04-29T12:13:54.895Z,100223.44
2023-04-29T12:17:03.942Z,100218.94
2023-04-29T12:20:13.774Z,100215.03
2023-04-29T12:23:24.422Z,100219.19
2023-04-29T12:26:38.755Z,100202.22
2023-04-29T12:29:41.109Z,100209.91
2023-04-29T12:32:58.798Z,100199.53
2023-04-29T12:36:16.741Z,100195.97
2023-04-29T12:39:24.779Z,100193.50
2023-04-29T12:42:33.662Z,100189.56
2023-04-29T12:45:48.765Z,100198.81
2023-04-29T12:48:50.907Z,100180.34
2023-04-29T12:52:12.824Z,100175.69
2023-04-29T12:55:21.742Z,100182.56
2023-04-29T12:58:37.794Z,100184.62
2023-04-29T13:01:46.785Z,100164.25
2023-04-29T13:05:02.094Z,100164.97
2023-04-29T13:08:10.340Z,100156.97
2023-04-29T13:11:24.773Z,100162.66
2023-04-29T13:14:33.412Z,100152.22
2023-04-29T13:17:42.802Z,100149.69
2023-04-29T13:20:53.291Z,100147.56
2023-04-29T13:24:01.752Z,100147.94
2023-04-29T13:27:16.761Z,100141.03
2023-04-29T13:30:25.607Z,100139.94
2023-04-29T13:33:40.801Z,100132.00
2023-04-29T13:36:55.756Z,100129.78
2023-04-29T13:40:07.085Z,100127.44
2023-04-29T13:43:32.681Z,100124.50
2023-04-29T13:46:52.067Z,100112.91
2023-04-29T13:50:53.819Z,100123.59
2023-04-29T14:00:47.142Z,100114.87
2023-04-29T14:03:48.568Z,100110.63
2023-04-29T14:07:03.829Z,100115.37
2023-04-29T14:10:06.209Z,100123.84
2023-04-29T14:13:20.771Z,100119.81
2023-04-29T14:16:29.954Z,100124.09
2023-04-29T14:19:44.804Z,100118.22
2023-04-29T14:22:53.759Z,100125.16
2023-04-29T14:26:22.494Z,100122.59
2023-04-29T14:29:31.498Z,100123.34
2023-04-29T14:32:39.791Z,100122.53
2023-04-29T14:35:48.390Z,100112.88
2023-04-29T14:39:03.856Z,100113.75
2023-04-29T14:42:05.771Z,100106.03
2023-04-29T14:45:20.802Z,100109.34
2023-04-29T14:48:35.815Z,100106.72
2023-04-29T14:51:51.086Z,100096.78
2023-04-29T14:54:59.810Z,100096.88
2023-04-29T14:58:08.412Z,100098.00
2023-04-29T15:01:22.813Z,100098.69
2023-04-29T15:04:31.468Z,100116.62
2023-04-29T15:07:42.775Z,100106.62
2023-04-29T15:10:51.466Z,100112.88
2023-04-29T15:13:59.861Z,100110.22
2023-04-29T15:17:08.578Z,100108.72
2023-04-29T15:20:23.778Z,100101.97
2023-04-29T15:23:32.426Z,100092.22
2023-04-29T15:26:46.795Z,100105.13
2023-04-29T15:30:01.863Z,100100.88
2023-04-29T15:33:16.873Z,100100.06
2023-04-29T15:36:25.809Z,100106.62
2023-04-29T15:39:34.568Z,100106.62
2023-04-29T15:42:49.811Z,100099.38
2023-04-29T15:46:05.866Z,100102.00
2023-04-29T15:49:24.029Z,100098.94
2023-04-29T15:52:46.779Z,100099.53
2023-04-29T15:56:01.799Z,100099.62
2023-04-29T15:59:16.844Z,100089.97
2023-04-29T16:02:18.784Z,100081.75
2023-04-29T16:05:34.793Z,100083.09
2023-04-29T16:08:43.512Z,100078.84
2023-04-29T16:11:51.777Z,100085.19
2023-04-29T16:15:06.817Z,100088.94
2023-04-29T16:18:21.804Z,100086.16
2023-04-29T16:21:23.817Z,100088.31
2023-04-29T16:24:38.808Z,100094.31
2023-04-29T16:27:50.749Z,100098.88
2023-04-29T16:30:59.935Z,100099.59
2023-04-29T16:34:14.806Z,100097.09
2023-04-29T16:37:16.735Z,100095.88
2023-04-29T16:40:35.183Z,100090.12
2023-04-29T16:43:49.839Z,100095.44
2023-04-29T16:46:57.838Z,100083.31
2023-04-29T16:50:13.139Z,100092.47
2023-04-29T16:53:27.837Z,100086.94
2023-04-29T16:56:32.928Z,100089.22
2023-04-29T16:59:47.868Z,100086.06
2023-04-29T17:02:56.612Z,100081.97
2023-04-29T17:06:11.959Z,100071.13
2023-04-29T17:09:26.796Z,100083.88
2023-04-29T17:12:41.835Z,100094.84
2023-04-29T17:15:49.838Z,100103.78
2023-04-29T17:18:59.036Z,100096.88
2023-04-29T17:22:13.887Z,100104.00
2023-04-29T17:25:22.405Z,100110.63
2023-04-29T17:28:37.811Z,100110.38
2023-04-29T17:31:53.068Z,100114.66
2023-04-29T17:35:01.752Z,100110.44
2023-04-29T17:38:10.829Z,100119.28
2023-04-29T17:41:25.854Z,100118.13
2023-04-29T17:44:35.844Z,100114.72
2023-04-29T17:47:51.274Z,100106.75
2023-04-29T17:50:54.520Z,100124.09
2023-04-29T17:54:16.832Z,100119.47
2023-04-29T17:57:19.159Z,100134.19
2023-04-29T18:00:33.946Z,100131.53
2023-04-29T18:03:49.922Z,100120.09
2023-04-29T18:06:52.439Z,100111.75
2023-04-29T18:10:07.813Z,100136.88
2023-04-29T18:13:15.833Z,100125.94
2023-04-29T18:16:24.816Z,100129.50
2023-04-29T18:19:41.147Z,100137.03
2023-04-29T18:22:44.229Z,100138.81
2023-04-29T18:25:58.872Z,100143.75
2023-04-29T18:29:13.865Z,100146.47
2023-04-29T18:32:21.803Z,100156.34
2023-04-29T18:35:36.821Z,100161.31
2023-04-29T18:38:38.976Z,100165.44
2023-04-29T18:41:53.868Z,100171.81
2023-04-29T18:45:02.763Z,100169.72
2023-04-29T18:48:17.848Z,100179.22
2023-04-29T18:51:19.835Z,100179.44
2023-04-29T18:54:35.204Z,100182.59
2023-04-29T18:57:44.846Z,100183.37
2023-04-29T19:00:54.103Z,100176.37
2023-04-29T19:04:04.008Z,100173.56
2023-04-29T19:07:12.542Z,100187.84
2023-04-29T19:10:29.224Z,100186.56
2023-04-29T19:13:43.801Z,100196.41
2023-04-29T19:16:45.844Z,100197.19
2023-04-29T19:20:00.850Z,100201.47
2023-04-29T19:23:09.691Z,100201.47
2023-04-29T19:26:18.054Z,100197.19
2023-04-29T19:29:33.292Z,100199.22
2023-04-29T19:32:48.072Z,100198.62
2023-04-29T19:36:03.824Z,100199.56
2023-04-29T19:39:06.247Z,100202.87
2023-04-29T19:42:20.999Z,100205.72
2023-04-29T19:45:30.034Z,100208.56
2023-04-29T19:48:44.830Z,100205.88
2023-04-29T19:51:53.063Z,100213.34
2023-04-29T19:55:08.286Z,100205.09
2023-04-29T19:58:10.514Z,100207.31
2023-04-29T20:01:25.860Z,100213.69
2023-04-29T20:04:34.567Z,100207.19
2023-04-29T20:07:43.829Z,100218.59
2023-04-29T20:10:52.958Z,100215.28
2023-04-29T20:14:07.808Z,100224.97
2023-04-29T20:17:16.704Z,100219.72
2023-04-29T20:20:25.992Z,100221.47
2023-04-29T20:23:40.822Z,100215.59
2023-04-29T20:26:49.445Z,100221.28
2023-04-29T20:29:57.831Z,100217.50
2023-04-29T20:33:13.077Z,100218.12
2023-04-29T20:36:21.824Z,100209.38
2023-04-29T20:39:37.064Z,100213.66
2023-04-29T20:42:45.823Z,100210.63
2023-04-29T20:45:53.997Z,100217.09
2023-04-29T20:49:02.932Z,100209.94
2023-04-29T20:52:11.873Z,100217.72
2023-04-29T20:55:20.525Z,100223.25
2023-04-29T20:58:34.851Z,100235.16
2023-04-29T21:01:43.887Z,100235.28
2023-04-29T21:04:52.505Z,100232.59
2023-04-29T21:08:00.854Z,100237.84
2023-04-29T21:11:15.838Z,100234.50
2023-04-29T21:14:23.820Z,100236.91
2023-04-29T21:17:38.831Z,100239.78
2023-04-29T21:20:40.911Z,100242.66
2023-04-29T21:23:55.872Z,100239.63
2023-04-29T21:27:10.869Z,100238.53
2023-04-29T21:30:25.870Z,100233.28
2023-04-29T21:33:27.749Z,100236.44
2023-04-29T21:36:42.834Z,100247.84
2023-04-29T21:39:50.905Z,100247.09
2023-04-29T21:43:06.839Z,100244.37
2023-04-29T21:46:14.884Z,100230.84
2023-04-29T21:49:23.463Z,100246.09
2023-04-29T21:52:37.874Z,100254.50
2023-04-29T21:55:53.085Z,100246.75
2023-04-29T21:59:01.849Z,100255.13
2023-04-29T22:02:16.897Z,100249.72
2023-04-29T22:05:18.915Z,100249.25
2023-04-29T22:08:33.844Z,100243.38
2023-04-29T22:11:41.850Z,100244.63
2023-04-29T22:14:56.845Z,100247.00
2023-04-29T22:18:11.852Z,100195.31
2023-04-29T22:21:19.838Z,100229.41
2023-04-29T22:24:41.862Z,100230.50
2023-04-29T22:27:43.671Z,100238.44
2023-04-29T22:30:58.843Z,100237.47
2023-04-29T22:34:06.846Z,100239.84
2023-04-29T22:37:15.542Z,100243.03
2023-04-29T22:40:23.872Z,100244.44
2023-04-29T22:43:38.837Z,100250.16
2023-04-29T22:46:47.415Z,100253.47
2023-04-29T22:49:56.058Z,100246.97
2023-04-29T22:53:11.102Z,100252.38
2023-04-29T22:56:25.837Z,100251.09
2023-04-29T22:59:33.845Z,100249.47
2023-04-29T23:02:43.084Z,100244.41
2023-04-29T23:05:51.900Z,100244.72
2023-04-29T23:09:06.826Z,100242.66
2023-04-29T23:12:09.163Z,100235.59
2023-04-29T23:15:23.831Z,100252.16
2023-04-29T23:18:31.859Z,100249.78
2023-04-29T23:21:40.662Z,100247.37
2023-04-29T23:24:55.844Z,100251.19
2023-04-29T23:28:04.624Z,100248.00
2023-04-29T23:31:12.918Z,100249.91
2023-04-29T23:34:21.425Z,100233.22
2023-04-29T23:37:35.870Z,100238.91
2023-04-29T23:40:37.819Z,100242.22
2023-04-29T23:43:52.850Z,100247.63
2023-04-29T23:47:01.848Z,100246.00
2023-04-29T23:50:16.846Z,100233.19
2023-04-29T23:53:24.842Z,100224.25
2023-04-29T23:56:39.866Z,100193.72
2023-04-29T23:59:48.576Z,100234.13
